createdAt,value
2023-10-01T00:02:17.351Z,101171.56
2023-10-01T00:07:19.064Z,101170.03
2023-10-01T00:12:25.050Z,101169.16
2023-10-01T00:17:26.750Z,101159.50
2023-10-01T00:22:28.795Z,101162.56
2023-10-01T00:27:30.472Z,101160.53
2023-10-01T00:32:32.229Z,101163.97
2023-10-01T00:37:34.715Z,101159.66
2023-10-01T00:42:37.614Z,101158.47
2023-10-01T00:47:42.770Z,101153.41
2023-10-01T00:52:46.048Z,101144.75
2023-10-01T00:57:47.955Z,101134.38
2023-10-01T01:03:02.372Z,101130.50
2023-10-01T01:08:22.241Z,101134.31
2023-10-01T01:13:26.991Z,101120.81
2023-10-01T01:18:29.203Z,101120.78
2023-10-01T01:23:32.858Z,101114.53
2023-10-01T01:28:36.995Z,101110.59
2023-10-01T01:33:42.205Z,101112.97
2023-10-01T01:39:11.186Z,101112.75
2023-10-01T01:44:15.819Z,101114.69
2023-10-01T01:49:21.375Z,101108.34
2023-10-01T01:54:23.146Z,101102.09
2023-10-01T01:59:28.669Z,101104.69
2023-10-01T02:04:30.688Z,101102.34
2023-10-01T02:09:32.479Z,101098.19
2023-10-01T02:14:36.568Z,101103.00
2023-10-01T02:19:38.374Z,101094.81
2023-10-01T02:24:46.502Z,101087.47
2023-10-01T02:30:07.065Z,101095.13
2023-10-01T02:35:28.849Z,101096.22
2023-10-01T02:40:38.030Z,101092.97
2023-10-01T02:45:43.137Z,101090.28
2023-10-01T02:50:46.853Z,101080.81
2023-10-01T02:55:49.091Z,101072.19
2023-10-01T03:00:54.381Z,101081.69
2023-10-01T03:05:56.801Z,101097.66
2023-10-01T03:10:58.459Z,101096.84
2023-10-01T03:16:18.526Z,101083.38
2023-10-01T03:21:37.867Z,101089.75
2023-10-01T03:26:45.278Z,101107.94
2023-10-01T03:31:47.693Z,101093.66
2023-10-01T03:36:53.499Z,101074.69
2023-10-01T03:42:04.957Z,101061.41
2023-10-01T03:47:09.958Z,101066.34
2023-10-01T03:52:22.199Z,101071.84
2023-10-01T03:57:24.153Z,101089.53
2023-10-01T04:02:30.086Z,101082.03
2023-10-01T04:07:52.047Z,101089.13
2023-10-01T04:12:56.260Z,101085.16
2023-10-01T04:18:20.487Z,101105.25
2023-10-01T04:23:30.496Z,101111.03
2023-10-01T04:28:32.597Z,101123.97
2023-10-01T04:33:35.640Z,101087.13
2023-10-01T04:38:37.554Z,101085.72
2023-10-01T04:43:52.918Z,101081.72
2023-10-01T04:48:55.484Z,101072.41
2023-10-01T04:54:01.413Z,101068.13
2023-10-01T04:59:03.753Z,101048.78
2023-10-01T05:04:05.791Z,101046.53
2023-10-01T05:09:09.202Z,101035.59
2023-10-01T05:14:13.227Z,101059.97
2023-10-01T05:19:15.125Z,101062.47
2023-10-01T05:24:32.510Z,101086.66
2023-10-01T05:29:35.258Z,101086.66
2023-10-01T05:34:39.284Z,101079.00
2023-10-01T05:45:10.599Z,101096.97
2023-10-01T05:50:14.095Z,101092.97
2023-10-01T05:55:20.999Z,101090.25
2023-10-01T06:00:28.848Z,101090.16
2023-10-01T06:05:42.706Z,101095.09
2023-10-01T06:11:05.600Z,101103.94
2023-10-01T06:16:17.610Z,101104.50
2023-10-01T06:21:26.420Z,101102.69
2023-10-01T06:26:43.648Z,101111.00
2023-10-01T06:31:50.856Z,101110.72
2023-10-01T06:36:59.621Z,101104.97
2023-10-01T06:42:21.497Z,101104.56
2023-10-01T06:47:27.824Z,101107.19
2023-10-01T06:52:34.053Z,101114.66
2023-10-01T06:57:37.247Z,101110.56
2023-10-01T07:02:40.781Z,101105.19
2023-10-01T07:07:43.956Z,101110.47
2023-10-01T07:12:59.244Z,101118.41
2023-10-01T07:18:14.760Z,101112.78
2023-10-01T07:23:20.052Z,101108.44
2023-10-01T07:28:21.845Z,101106.19
2023-10-01T07:33:23.821Z,101096.06
2023-10-01T07:38:32.758Z,101094.34
2023-10-01T07:43:34.643Z,101090.75
2023-10-01T07:48:39.620Z,101092.00
2023-10-01T07:53:43.591Z,101107.28
2023-10-01T07:58:58.754Z,101106.41
2023-10-01T08:04:01.319Z,101109.31
2023-10-01T08:09:12.810Z,101103.81
2023-10-01T08:14:17.276Z,101103.84
2023-10-01T08:19:21.966Z,101108.63
2023-10-01T08:24:34.839Z,101108.47
2023-10-01T08:29:55.324Z,101092.97
2023-10-01T08:35:03.094Z,101096.38
2023-10-01T08:40:15.258Z,101102.47
2023-10-01T08:45:18.623Z,101096.53
2023-10-01T08:50:28.418Z,101093.81
2023-10-01T08:55:48.334Z,101095.28
2023-10-01T09:01:11.451Z,101085.19
2023-10-01T09:06:33.423Z,101078.91
2023-10-01T09:11:43.233Z,101085.25
2023-10-01T09:16:47.490Z,101079.44
2023-10-01T09:21:49.323Z,101075.13
2023-10-01T09:26:57.470Z,101063.13
2023-10-01T09:32:00.031Z,101063.09
2023-10-01T09:37:08.098Z,101059.69
2023-10-01T09:42:30.756Z,101064.22
2023-10-01T09:47:34.812Z,101046.97
2023-10-01T09:52:50.237Z,101054.81
2023-10-01T09:57:53.917Z,101051.69
2023-10-01T10:02:55.688Z,101060.09
2023-10-01T10:08:12.926Z,101060.13
2023-10-01T10:13:40.518Z,101057.25
2023-10-01T10:19:06.759Z,101064.44
2023-10-01T10:24:19.784Z,101062.75
2023-10-01T10:29:23.807Z,101059.28
2023-10-01T10:34:26.704Z,101051.53
2023-10-01T10:39:46.851Z,101053.41
2023-10-01T10:45:26.645Z,101055.00
2023-10-01T10:50:50.479Z,101054.88
2023-10-01T10:56:01.213Z,101048.91
2023-10-01T11:01:16.971Z,101044.78
2023-10-01T11:06:24.164Z,101039.38
2023-10-01T11:11:40.899Z,101046.25
2023-10-01T11:16:46.771Z,101039.13
2023-10-01T11:21:56.662Z,101030.00
2023-10-01T11:27:27.254Z,101020.75
2023-10-01T11:33:05.297Z,101019.75
2023-10-01T11:38:15.777Z,101019.41
2023-10-01T11:43:28.419Z,101014.03
2023-10-01T11:48:35.193Z,100999.63
2023-10-01T11:53:59.293Z,101001.28
2023-10-01T11:59:01.128Z,100988.66
2023-10-01T12:04:03.183Z,100984.94
2023-10-01T12:09:05.367Z,100984.44
2023-10-01T12:14:10.362Z,100983.00
2023-10-01T12:19:24.358Z,100982.56
2023-10-01T12:24:29.927Z,100987.38
2023-10-01T12:29:43.857Z,100986.91
2023-10-01T12:34:46.915Z,100984.31
2023-10-01T12:39:49.094Z,100965.72
2023-10-01T12:44:51.009Z,100962.16
2023-10-01T12:50:00.255Z,100959.63
2023-10-01T12:55:05.127Z,100957.53
2023-10-01T13:00:42.794Z,100956.03
2023-10-01T13:05:49.433Z,100956.41
2023-10-01T13:10:52.562Z,100937.53
2023-10-01T13:15:56.092Z,100949.75
2023-10-01T13:21:09.213Z,100954.16
2023-10-01T13:26:25.540Z,100949.38
2023-10-01T13:31:32.299Z,100949.28
2023-10-01T13:36:56.429Z,100944.06
2023-10-01T13:42:16.502Z,100935.53
2023-10-01T13:47:36.935Z,100934.50
2023-10-01T13:52:57.175Z,100926.66
2023-10-01T13:58:17.526Z,100921.94
2023-10-01T14:03:37.790Z,100922.06
2023-10-01T14:08:45.354Z,100918.81
2023-10-01T14:13:49.457Z,100910.59
2023-10-01T14:18:55.585Z,100908.09
2023-10-01T14:24:19.229Z,100898.06
2023-10-01T14:29:23.918Z,100888.81
2023-10-01T14:34:25.746Z,100889.44
2023-10-01T14:39:33.490Z,100893.84
2023-10-01T14:44:43.876Z,100898.00
2023-10-01T14:49:45.828Z,100893.84
2023-10-01T14:54:47.915Z,100893.00
2023-10-01T14:59:49.569Z,100889.53
2023-10-01T15:04:51.232Z,100883.00
2023-10-01T15:10:06.225Z,100879.91
2023-10-01T15:15:29.478Z,100886.56
2023-10-01T15:20:48.741Z,100881.19
2023-10-01T15:25:50.564Z,100877.19
2023-10-01T15:30:52.302Z,100877.31
2023-10-01T15:35:54.475Z,100886.91
2023-10-01T15:40:56.625Z,100885.69
2023-10-01T15:46:14.067Z,100874.59
2023-10-01T15:51:26.982Z,100877.72
2023-10-01T15:56:34.482Z,100873.75
2023-10-01T16:01:36.246Z,100876.06
2023-10-01T16:06:39.395Z,100870.53
2023-10-01T16:11:41.052Z,100871.81
2023-10-01T16:16:42.935Z,100874.72
2023-10-01T16:21:45.480Z,100872.59
2023-10-01T16:26:47.855Z,100880.94
2023-10-01T16:31:49.825Z,100879.88
2023-10-01T16:36:52.585Z,100884.84
2023-10-01T16:41:54.243Z,100886.09
2023-10-01T16:46:59.713Z,100900.69
2023-10-01T16:52:03.523Z,100897.53
2023-10-01T16:57:13.128Z,100893.56
2023-10-01T17:02:19.787Z,100902.13
2023-10-01T17:07:22.729Z,100909.00
2023-10-01T17:12:24.940Z,100913.59
2023-10-01T17:17:28.839Z,100913.78
2023-10-01T17:22:30.731Z,100926.06
2023-10-01T17:27:32.562Z,100919.97
2023-10-01T17:32:34.285Z,100930.47
2023-10-01T17:37:36.025Z,100923.53
2023-10-01T17:42:37.709Z,100911.19
2023-10-01T17:47:45.430Z,100917.41
2023-10-01T17:52:48.007Z,100918.63
2023-10-01T17:57:49.769Z,100928.00
2023-10-01T18:02:51.595Z,100928.00
2023-10-01T18:07:54.985Z,100934.06
2023-10-01T18:12:58.285Z,100936.41
2023-10-01T18:17:59.995Z,100935.13
2023-10-01T18:23:01.840Z,100934.47
2023-10-01T18:28:03.666Z,100929.44
2023-10-01T18:33:06.028Z,100921.34
2023-10-01T18:38:12.761Z,100926.66
2023-10-01T18:43:18.749Z,100929.84
2023-10-01T18:48:20.455Z,100933.59
2023-10-01T18:53:22.516Z,100918.91
2023-10-01T18:58:24.375Z,100919.88
2023-10-01T19:03:26.450Z,100917.00
2023-10-01T19:08:33.267Z,100926.25
2023-10-01T19:13:35.342Z,100928.97
2023-10-01T19:18:37.127Z,100932.75
2023-10-01T19:23:42.010Z,100939.38
2023-10-01T19:28:43.881Z,100942.25
2023-10-01T19:33:45.841Z,100946.84
2023-10-01T19:38:50.299Z,100949.09
2023-10-01T19:43:52.072Z,100951.06
2023-10-01T19:48:53.964Z,100934.50
2023-10-01T19:54:13.733Z,100955.38
2023-10-01T19:59:16.378Z,100955.16
2023-10-01T20:04:19.418Z,100946.72
2023-10-01T20:09:33.878Z,100948.19
2023-10-01T20:14:42.010Z,100943.22
2023-10-01T20:19:44.473Z,100936.66
2023-10-01T20:24:50.966Z,100936.56
2023-10-01T20:29:57.263Z,100936.56
2023-10-01T20:34:59.585Z,100946.44
2023-10-01T20:40:09.695Z,100945.59
2023-10-01T20:45:25.302Z,100937.28
2023-10-01T20:50:40.010Z,100942.13
2023-10-01T20:55:42.002Z,100930.94
2023-10-01T21:00:51.781Z,100929.47
2023-10-01T21:05:56.610Z,100928.06
2023-10-01T21:11:02.941Z,100927.06
2023-10-01T21:16:05.289Z,100926.47
2023-10-01T21:21:07.853Z,100919.66
2023-10-01T21:26:09.550Z,100918.75
2023-10-01T21:31:21.252Z,100914.94
2023-10-01T21:36:23.548Z,100909.94
2023-10-01T21:41:29.680Z,100911.63
2023-10-01T21:46:39.619Z,100913.69
2023-10-01T21:51:47.117Z,100919.44
2023-10-01T21:56:49.414Z,100923.91
2023-10-01T22:01:54.457Z,100917.69
2023-10-01T22:07:00.746Z,100915.72
2023-10-01T22:12:03.586Z,100919.59
2023-10-01T22:17:06.219Z,100921.75
2023-10-01T22:22:08.100Z,100920.94
2023-10-01T22:27:13.279Z,100921.78
2023-10-01T22:32:15.757Z,100911.56
2023-10-01T22:37:18.341Z,100911.78
2023-10-01T22:42:23.262Z,100910.59
2023-10-01T22:47:26.978Z,100918.53
2023-10-01T22:52:32.523Z,100918.09
2023-10-01T22:57:42.813Z,100902.88
2023-10-01T23:02:53.331Z,100906.97
2023-10-01T23:08:08.591Z,100920.16
2023-10-01T23:13:13.646Z,100923.38
2023-10-01T23:18:27.289Z,100923.56
2023-10-01T23:23:30.970Z,100927.97
2023-10-01T23:28:38.269Z,100927.84
2023-10-01T23:33:40.325Z,100944.56
2023-10-01T23:38:57.481Z,100939.16
2023-10-01T23:44:00.552Z,100933.25
2023-10-01T23:49:06.094Z,100932.91
2023-10-01T23:54:09.726Z,100930.03
2023-10-01T23:59:29.861Z,100930.03
